createdAt,value
2019-05-19T00:02:13.787Z,18.97
2019-05-19T00:05:02.213Z,19.30
2019-05-19T00:07:50.840Z,18.60
2019-05-19T00:10:39.246Z,19.60
2019-05-19T00:13:27.986Z,19.50
2019-05-19T00:16:16.528Z,19.53
2019-05-19T00:19:05.166Z,20.30
2019-05-19T00:21:53.239Z,19.77
2019-05-19T00:24:42.036Z,17.67
2019-05-19T00:27:30.306Z,19.67
2019-05-19T00:30:18.471Z,20.13
2019-05-19T00:33:06.467Z,20.20
2019-05-19T00:35:55.046Z,21.00
2019-05-19T00:38:43.321Z,21.00
2019-05-19T00:41:31.288Z,19.83
2019-05-19T00:44:19.625Z,19.47
2019-05-19T00:47:07.289Z,21.10
2019-05-19T00:49:56.183Z,20.07
2019-05-19T00:52:44.673Z,20.23
2019-05-19T00:55:32.689Z,20.60
2019-05-19T00:58:21.815Z,22.00
2019-05-19T01:01:10.121Z,21.30
2019-05-19T01:03:58.975Z,23.13
2019-05-19T01:06:47.559Z,22.70
2019-05-19T01:09:36.059Z,22.90
2019-05-19T01:12:23.660Z,21.50
2019-05-19T01:15:12.176Z,20.67
2019-05-19T01:18:00.300Z,21.30
2019-05-19T01:20:49.130Z,22.57
2019-05-19T01:23:36.926Z,21.73
2019-05-19T01:26:24.507Z,22.40
2019-05-19T01:29:12.693Z,21.60
2019-05-19T01:32:01.207Z,22.00
2019-05-19T01:34:49.651Z,22.43
2019-05-19T01:37:37.860Z,22.03
2019-05-19T01:40:26.387Z,23.13
2019-05-19T01:43:14.679Z,23.47
2019-05-19T01:46:03.587Z,22.43
2019-05-19T01:48:52.106Z,21.30
2019-05-19T01:51:40.739Z,22.27
2019-05-19T01:54:29.404Z,23.13
2019-05-19T01:57:17.528Z,22.80
2019-05-19T02:00:06.299Z,22.10
2019-05-19T02:02:54.295Z,21.30
2019-05-19T02:05:42.538Z,23.40
2019-05-19T02:08:30.599Z,22.20
2019-05-19T02:11:19.252Z,23.27
2019-05-19T02:14:07.667Z,22.70
2019-05-19T02:16:58.095Z,21.80
2019-05-19T02:19:46.311Z,21.77
2019-05-19T02:22:34.104Z,21.23
2019-05-19T02:25:22.539Z,21.83
2019-05-19T02:28:10.899Z,21.03
2019-05-19T02:30:58.480Z,21.50
2019-05-19T02:33:46.137Z,24.90
2019-05-19T02:36:34.259Z,22.23
2019-05-19T02:39:22.281Z,22.30
2019-05-19T02:42:11.881Z,22.00
2019-05-19T02:45:02.156Z,23.73
2019-05-19T02:47:52.251Z,22.93
2019-05-19T02:50:52.476Z,24.07
2019-05-19T02:53:33.519Z,24.50
2019-05-19T02:56:22.198Z,25.30
2019-05-19T02:59:11.018Z,24.33
2019-05-19T03:02:17.756Z,24.70
2019-05-19T03:05:06.542Z,24.30
2019-05-19T03:07:54.663Z,23.43
2019-05-19T03:10:43.292Z,22.93
2019-05-19T03:13:31.551Z,24.20
2019-05-19T03:16:19.510Z,24.63
2019-05-19T03:19:07.507Z,24.33
2019-05-19T03:21:56.400Z,22.83
2019-05-19T03:24:45.185Z,25.00
2019-05-19T03:27:33.241Z,25.00
2019-05-19T03:30:39.481Z,24.43
2019-05-19T03:33:29.653Z,25.80
2019-05-19T03:36:18.257Z,24.70
2019-05-19T03:39:07.286Z,23.80
2019-05-19T03:41:55.844Z,23.37
2019-05-19T03:44:44.440Z,23.60
2019-05-19T03:47:32.229Z,23.87
2019-05-19T03:50:20.521Z,22.77
2019-05-19T03:53:09.141Z,21.63
2019-05-19T03:55:57.580Z,22.20
2019-05-19T03:58:45.907Z,24.97
2019-05-19T04:01:34.209Z,22.63
2019-05-19T04:04:22.915Z,23.43
2019-05-19T04:07:11.776Z,22.87
2019-05-19T04:10:00.364Z,24.60
2019-05-19T04:12:48.668Z,24.50
2019-05-19T04:15:36.728Z,25.87
2019-05-19T04:18:25.269Z,24.97
2019-05-19T04:21:13.479Z,25.13
2019-05-19T04:24:01.670Z,24.40
2019-05-19T04:26:50.173Z,24.07
2019-05-19T04:29:39.549Z,24.53
2019-05-19T04:32:27.876Z,25.50
2019-05-19T04:35:16.451Z,25.60
2019-05-19T04:38:04.039Z,26.00
2019-05-19T04:40:52.565Z,25.03
2019-05-19T04:43:40.448Z,27.37
2019-05-19T04:46:29.247Z,27.53
2019-05-19T04:49:17.292Z,26.40
2019-05-19T04:52:07.025Z,27.10
2019-05-19T04:54:55.190Z,26.70
2019-05-19T04:57:43.443Z,26.27
2019-05-19T05:00:31.777Z,26.53
2019-05-19T05:03:19.220Z,27.90
2019-05-19T05:06:07.549Z,28.20
2019-05-19T05:08:56.264Z,27.00
2019-05-19T05:11:44.048Z,29.83
2019-05-19T05:14:31.647Z,28.20
2019-05-19T05:17:20.262Z,28.47
2019-05-19T05:20:09.213Z,30.10
2019-05-19T05:22:57.059Z,32.07
2019-05-19T05:25:45.407Z,31.67
2019-05-19T05:28:33.900Z,30.93
2019-05-19T05:31:21.822Z,29.80
2019-05-19T05:34:09.907Z,30.30
2019-05-19T05:36:58.163Z,31.87
2019-05-19T05:39:46.662Z,32.10
2019-05-19T05:42:34.684Z,34.70
2019-05-19T05:45:23.131Z,32.80
2019-05-19T05:48:10.871Z,34.47
2019-05-19T05:50:59.455Z,33.73
2019-05-19T05:53:47.377Z,34.90
2019-05-19T05:56:35.998Z,33.37
2019-05-19T05:59:24.149Z,36.37
2019-05-19T06:02:12.716Z,35.47
2019-05-19T06:05:01.102Z,32.83
2019-05-19T06:07:49.572Z,31.83
2019-05-19T06:10:37.840Z,32.90
2019-05-19T06:13:26.003Z,31.03
2019-05-19T06:16:13.753Z,32.23
2019-05-19T06:19:02.189Z,30.87
2019-05-19T06:21:49.970Z,30.77
2019-05-19T06:24:37.599Z,29.23
2019-05-19T06:27:26.074Z,27.73
2019-05-19T06:30:15.111Z,28.67
2019-05-19T06:33:04.302Z,31.17
2019-05-19T06:35:52.639Z,29.20
2019-05-19T06:38:40.633Z,28.77
2019-05-19T06:41:28.264Z,27.60
2019-05-19T06:44:16.929Z,28.50
2019-05-19T06:47:05.063Z,27.27
2019-05-19T06:49:53.666Z,28.23
2019-05-19T06:52:42.481Z,27.57
2019-05-19T06:55:31.283Z,28.57
2019-05-19T06:58:19.957Z,26.77
2019-05-19T07:01:08.007Z,28.87
2019-05-19T07:03:56.161Z,27.90
2019-05-19T07:06:45.129Z,27.57
2019-05-19T07:09:34.131Z,28.27
2019-05-19T07:12:21.853Z,26.10
2019-05-19T07:15:10.684Z,26.03
2019-05-19T07:17:58.469Z,22.67
2019-05-19T07:20:46.579Z,20.80
2019-05-19T07:23:35.064Z,21.80
2019-05-19T07:26:23.671Z,21.10
2019-05-19T07:29:11.235Z,21.77
2019-05-19T07:31:59.422Z,20.03
2019-05-19T07:34:47.330Z,21.10
2019-05-19T07:37:36.540Z,21.27
2019-05-19T07:40:24.923Z,20.23
2019-05-19T07:43:13.133Z,18.57
2019-05-19T07:46:00.963Z,18.57
2019-05-19T07:48:49.682Z,18.57
2019-05-19T07:51:37.959Z,16.23
2019-05-19T07:54:26.214Z,15.30
2019-05-19T07:57:14.735Z,14.40
2019-05-19T08:00:02.940Z,14.27
2019-05-19T08:02:50.975Z,15.03
2019-05-19T08:05:39.484Z,14.10
2019-05-19T08:08:27.702Z,15.27
2019-05-19T08:11:15.443Z,14.20
2019-05-19T08:14:03.289Z,15.57
2019-05-19T08:16:52.089Z,14.57
2019-05-19T08:19:39.824Z,14.77
2019-05-19T08:22:28.319Z,14.30
2019-05-19T08:25:16.207Z,14.80
2019-05-19T08:28:08.771Z,14.43
2019-05-19T08:30:54.023Z,13.53
2019-05-19T08:33:42.231Z,11.60
2019-05-19T08:36:31.082Z,12.43
2019-05-19T08:39:19.420Z,12.63
2019-05-19T08:42:07.487Z,10.70
2019-05-19T08:44:55.046Z,12.40
2019-05-19T08:47:43.312Z,11.47
2019-05-19T08:50:32.166Z,11.97
2019-05-19T08:53:21.555Z,12.33
2019-05-19T08:56:10.094Z,13.80
2019-05-19T08:58:58.420Z,12.20
2019-05-19T09:01:47.231Z,13.57
2019-05-19T09:04:36.119Z,13.00
2019-05-19T09:07:24.717Z,12.80
2019-05-19T09:10:14.339Z,12.60
2019-05-19T09:13:02.891Z,11.17
2019-05-19T09:15:50.511Z,12.13
2019-05-19T09:18:39.167Z,12.97
2019-05-19T09:21:27.862Z,12.77
2019-05-19T09:24:29.598Z,12.20
2019-05-19T09:27:05.722Z,12.07
2019-05-19T09:29:53.926Z,12.73
2019-05-19T09:32:42.544Z,12.23
2019-05-19T09:35:31.526Z,12.50
2019-05-19T09:38:20.210Z,12.37
2019-05-19T09:41:08.372Z,12.00
2019-05-19T09:43:57.094Z,12.37
2019-05-19T09:46:45.770Z,11.40
2019-05-19T09:49:34.630Z,11.87
2019-05-19T09:52:22.651Z,11.57
2019-05-19T09:55:11.068Z,12.90
2019-05-19T09:57:59.515Z,12.37
2019-05-19T10:00:48.276Z,12.20
2019-05-19T10:03:36.360Z,11.68
2019-05-19T10:06:24.816Z,14.00
2019-05-19T10:09:15.394Z,12.23
2019-05-19T10:12:05.685Z,10.63
2019-05-19T10:14:54.431Z,10.53
2019-05-19T10:17:42.871Z,12.57
2019-05-19T10:20:30.809Z,12.10
2019-05-19T10:23:19.108Z,11.20
2019-05-19T10:26:07.742Z,11.53
2019-05-19T10:28:56.154Z,11.17
2019-05-19T10:31:44.692Z,13.20
2019-05-19T10:34:33.131Z,12.82
2019-05-19T10:37:21.948Z,11.40
2019-05-19T10:40:10.054Z,13.32
2019-05-19T10:42:58.363Z,12.10
2019-05-19T10:45:54.996Z,12.13
2019-05-19T10:48:43.246Z,11.80
2019-05-19T10:51:31.190Z,10.58
2019-05-19T10:54:19.239Z,12.40
2019-05-19T10:57:07.022Z,11.48
2019-05-19T10:59:54.823Z,12.10
2019-05-19T11:02:43.480Z,12.85
2019-05-19T11:05:31.711Z,13.78
2019-05-19T11:08:19.712Z,14.10
2019-05-19T11:11:08.115Z,15.28
2019-05-19T11:13:56.724Z,16.30
2019-05-19T11:16:45.061Z,15.10
2019-05-19T11:19:34.028Z,13.40
2019-05-19T11:22:22.647Z,14.15
2019-05-19T11:25:11.048Z,15.32
2019-05-19T11:27:59.410Z,13.45
2019-05-19T11:30:47.929Z,14.33
2019-05-19T11:33:36.669Z,14.35
2019-05-19T11:36:25.170Z,12.07
2019-05-19T11:39:13.181Z,14.43
2019-05-19T11:42:01.520Z,12.95
2019-05-19T11:44:49.531Z,15.30
2019-05-19T11:47:38.114Z,15.60
2019-05-19T11:50:26.691Z,11.90
2019-05-19T11:53:14.879Z,14.15
2019-05-19T11:56:07.146Z,14.23
2019-05-19T11:58:52.613Z,13.28
2019-05-19T12:01:40.627Z,13.68
2019-05-19T12:04:28.658Z,14.80
2019-05-19T12:07:17.192Z,13.32
2019-05-19T12:10:06.410Z,15.53
2019-05-19T12:12:55.007Z,14.65
2019-05-19T12:15:43.228Z,13.93
2019-05-19T12:18:31.665Z,12.60
2019-05-19T12:21:19.965Z,11.20
2019-05-19T12:24:08.531Z,12.10
2019-05-19T12:26:56.919Z,11.10
2019-05-19T12:29:44.879Z,10.73
2019-05-19T12:32:32.759Z,10.40
2019-05-19T12:35:21.163Z,11.23
2019-05-19T12:38:09.455Z,10.13
2019-05-19T12:40:57.576Z,13.33
2019-05-19T12:43:46.060Z,13.50
2019-05-19T12:46:34.794Z,13.57
2019-05-19T12:49:23.856Z,12.43
2019-05-19T12:52:12.184Z,17.17
2019-05-19T12:55:00.814Z,20.40
2019-05-19T12:57:48.627Z,17.70
2019-05-19T13:00:36.742Z,17.53
2019-05-19T13:03:24.965Z,17.40
2019-05-19T13:06:12.669Z,18.60
2019-05-19T13:09:00.907Z,16.90
2019-05-19T13:11:48.535Z,15.07
2019-05-19T13:14:36.827Z,14.20
2019-05-19T13:17:25.545Z,14.60
2019-05-19T13:20:14.270Z,14.07
2019-05-19T13:23:02.291Z,14.20
2019-05-19T13:25:50.379Z,8.93
2019-05-19T13:28:39.072Z,9.57
2019-05-19T13:31:26.627Z,8.60
2019-05-19T13:34:15.021Z,7.13
2019-05-19T13:37:04.023Z,6.70
2019-05-19T13:39:52.660Z,4.80
2019-05-19T13:42:41.234Z,5.10
2019-05-19T13:45:29.784Z,4.43
2019-05-19T13:48:18.127Z,4.40
2019-05-19T13:51:06.681Z,4.63
2019-05-19T13:53:55.357Z,4.43
2019-05-19T13:56:43.482Z,4.77
2019-05-19T13:59:31.458Z,3.77
2019-05-19T14:02:19.713Z,4.17
2019-05-19T14:05:08.271Z,3.97
2019-05-19T14:07:56.675Z,4.40
2019-05-19T14:10:45.036Z,4.70
2019-05-19T14:13:33.303Z,4.40
2019-05-19T14:16:21.979Z,5.30
2019-05-19T14:19:10.042Z,5.77
2019-05-19T14:21:58.750Z,5.90
2019-05-19T14:24:46.895Z,6.87
2019-05-19T14:27:35.569Z,5.33
2019-05-19T14:30:24.183Z,6.70
2019-05-19T14:33:12.641Z,6.87
2019-05-19T14:36:01.162Z,6.93
2019-05-19T14:39:04.399Z,6.17
2019-05-19T14:41:53.630Z,7.63
2019-05-19T14:44:42.135Z,6.50
2019-05-19T14:47:30.402Z,6.53
2019-05-19T14:50:19.026Z,6.90
2019-05-19T14:53:07.072Z,6.17
2019-05-19T14:55:54.730Z,6.27
2019-05-19T14:58:42.463Z,6.30
2019-05-19T15:01:30.895Z,6.23
2019-05-19T15:04:19.293Z,7.97
2019-05-19T15:07:07.263Z,7.10
2019-05-19T15:09:56.359Z,8.37
2019-05-19T15:12:44.314Z,7.37
2019-05-19T15:15:32.527Z,7.10
2019-05-19T15:18:20.616Z,6.60
2019-05-19T15:21:08.339Z,6.70
2019-05-19T15:23:56.834Z,6.37
2019-05-19T15:26:45.044Z,6.20
2019-05-19T15:29:33.403Z,6.37
2019-05-19T15:32:22.035Z,5.40
2019-05-19T15:35:10.543Z,6.03
2019-05-19T15:37:59.432Z,5.53
2019-05-19T15:40:47.877Z,5.77
2019-05-19T15:43:36.327Z,5.23
2019-05-19T15:46:25.102Z,4.40
2019-05-19T15:49:13.759Z,4.90
2019-05-19T15:52:05.004Z,4.37
2019-05-19T15:54:51.690Z,5.00
2019-05-19T15:57:40.263Z,5.60
2019-05-19T16:00:28.564Z,5.10
2019-05-19T16:03:16.563Z,5.63
2019-05-19T16:06:05.089Z,4.80
2019-05-19T16:08:54.071Z,4.67
2019-05-19T16:11:42.168Z,4.70
2019-05-19T16:14:31.014Z,4.07
2019-05-19T16:17:19.342Z,5.27
2019-05-19T16:20:07.596Z,4.40
2019-05-19T16:22:56.242Z,4.10
2019-05-19T16:25:44.408Z,3.50
2019-05-19T16:28:32.457Z,3.80
2019-05-19T16:31:21.047Z,3.93
2019-05-19T16:34:08.751Z,3.87
2019-05-19T16:36:57.270Z,3.60
2019-05-19T16:39:45.520Z,4.23
2019-05-19T16:42:33.101Z,4.00
2019-05-19T16:45:21.436Z,3.67
2019-05-19T16:48:09.600Z,4.07
2019-05-19T16:50:57.939Z,4.20
2019-05-19T16:53:47.790Z,4.40
2019-05-19T16:56:35.522Z,3.83
2019-05-19T16:59:24.066Z,3.60
2019-05-19T17:02:11.761Z,3.90
2019-05-19T17:04:59.951Z,3.70
2019-05-19T17:07:48.376Z,3.47
2019-05-19T17:10:36.860Z,3.63
2019-05-19T17:13:26.091Z,3.50
2019-05-19T17:16:15.346Z,3.30
2019-05-19T17:19:03.151Z,3.87
2019-05-19T17:21:51.694Z,5.37
2019-05-19T17:24:40.175Z,5.57
2019-05-19T17:27:28.751Z,4.60
2019-05-19T17:30:18.871Z,4.10
2019-05-19T17:33:06.762Z,3.80
2019-05-19T17:35:54.605Z,3.70
2019-05-19T17:38:42.573Z,3.90
2019-05-19T17:41:30.742Z,4.00
2019-05-19T17:44:18.614Z,3.70
2019-05-19T17:47:06.400Z,4.27
2019-05-19T17:49:54.602Z,4.23
2019-05-19T17:52:42.619Z,4.03
2019-05-19T17:55:32.754Z,4.63
2019-05-19T17:58:21.172Z,4.10
2019-05-19T18:01:09.471Z,4.93
2019-05-19T18:03:58.352Z,4.50
2019-05-19T18:06:47.296Z,4.70
2019-05-19T18:09:35.881Z,4.70
2019-05-19T18:12:23.492Z,5.93
2019-05-19T18:15:11.858Z,5.77
2019-05-19T18:17:59.795Z,5.20
2019-05-19T18:20:48.283Z,5.53
2019-05-19T18:23:36.932Z,5.60
2019-05-19T18:26:25.122Z,5.07
2019-05-19T18:29:13.258Z,5.50
2019-05-19T18:32:02.004Z,5.80
2019-05-19T18:34:49.952Z,5.40
2019-05-19T18:37:38.354Z,6.20
2019-05-19T18:40:26.638Z,6.30
2019-05-19T18:43:14.771Z,5.50
2019-05-19T18:46:03.239Z,5.67
2019-05-19T18:48:51.133Z,6.23
2019-05-19T18:51:40.068Z,6.30
2019-05-19T18:54:28.637Z,6.43
2019-05-19T18:57:17.338Z,6.30
2019-05-19T19:00:05.941Z,7.17
2019-05-19T19:02:54.126Z,6.33
2019-05-19T19:05:42.654Z,7.00
2019-05-19T19:08:30.593Z,6.80
2019-05-19T19:11:19.211Z,7.23
2019-05-19T19:14:07.148Z,7.10
2019-05-19T19:16:55.716Z,7.47
2019-05-19T19:19:43.995Z,7.80
2019-05-19T19:22:32.319Z,10.00
2019-05-19T19:25:20.119Z,7.43
2019-05-19T19:28:08.224Z,6.83
2019-05-19T19:30:56.658Z,7.03
2019-05-19T19:33:44.979Z,6.10
2019-05-19T19:36:33.148Z,6.40
2019-05-19T19:39:21.231Z,6.13
2019-05-19T19:42:09.431Z,5.67
2019-05-19T19:44:58.552Z,5.50
2019-05-19T19:47:46.838Z,6.00
2019-05-19T19:50:35.511Z,7.00
2019-05-19T19:53:23.784Z,5.87
2019-05-19T19:56:11.752Z,5.90
2019-05-19T19:59:00.027Z,6.07
2019-05-19T20:01:49.066Z,6.93
2019-05-19T20:04:37.564Z,6.27
2019-05-19T20:07:26.141Z,5.80
2019-05-19T20:10:14.031Z,6.90
2019-05-19T20:13:02.922Z,6.40
2019-05-19T20:15:51.252Z,7.33
2019-05-19T20:18:39.663Z,6.97
2019-05-19T20:21:28.012Z,6.57
2019-05-19T20:24:15.967Z,6.27
2019-05-19T20:27:05.028Z,7.10
2019-05-19T20:29:53.507Z,6.90
2019-05-19T20:32:41.500Z,7.80
2019-05-19T20:35:30.035Z,6.50
2019-05-19T20:38:18.685Z,6.20
2019-05-19T20:41:07.162Z,7.30
2019-05-19T20:43:55.213Z,8.07
2019-05-19T20:46:43.748Z,7.77
2019-05-19T20:49:32.571Z,7.30
2019-05-19T20:52:21.543Z,7.77
2019-05-19T20:55:10.295Z,7.73
2019-05-19T20:57:58.313Z,8.50
2019-05-19T21:00:50.412Z,8.13
2019-05-19T21:03:37.383Z,8.17
2019-05-19T21:06:25.823Z,9.07
2019-05-19T21:09:14.463Z,9.00
2019-05-19T21:12:03.223Z,8.70
2019-05-19T21:14:51.971Z,9.40
2019-05-19T21:17:40.170Z,9.17
2019-05-19T21:20:28.207Z,8.87
2019-05-19T21:23:16.607Z,9.87
2019-05-19T21:26:05.101Z,9.17
2019-05-19T21:28:53.853Z,9.40
2019-05-19T21:31:43.004Z,9.23
2019-05-19T21:34:30.779Z,9.10
2019-05-19T21:37:19.464Z,8.93
2019-05-19T21:40:07.995Z,9.10
2019-05-19T21:42:56.667Z,9.07
2019-05-19T21:45:45.348Z,9.30
2019-05-19T21:48:34.380Z,9.63
2019-05-19T21:51:22.316Z,10.80
2019-05-19T21:54:11.067Z,10.90
2019-05-19T21:56:59.846Z,10.03
2019-05-19T21:59:48.632Z,10.20
2019-05-19T22:02:37.808Z,11.87
2019-05-19T22:05:26.255Z,10.47
2019-05-19T22:08:16.895Z,11.00
2019-05-19T22:11:04.940Z,10.80
2019-05-19T22:13:54.288Z,10.90
2019-05-19T22:16:43.155Z,11.50
2019-05-19T22:19:31.203Z,11.30
2019-05-19T22:22:19.425Z,11.07
2019-05-19T22:25:08.459Z,12.63
2019-05-19T22:27:56.819Z,11.83
2019-05-19T22:30:45.692Z,10.73
2019-05-19T22:33:33.823Z,11.77
2019-05-19T22:36:22.850Z,12.97
2019-05-19T22:39:11.394Z,12.37
2019-05-19T22:42:00.087Z,11.30
2019-05-19T22:44:48.739Z,12.03
2019-05-19T22:47:37.246Z,11.83
2019-05-19T22:50:25.723Z,12.13
2019-05-19T22:53:14.072Z,12.53
2019-05-19T22:56:02.675Z,13.23
2019-05-19T22:58:51.428Z,13.00
2019-05-19T23:01:50.988Z,12.77
2019-05-19T23:04:29.842Z,13.33
2019-05-19T23:07:18.221Z,12.10
2019-05-19T23:10:07.673Z,12.93
2019-05-19T23:12:55.680Z,13.07
2019-05-19T23:15:44.311Z,12.03
2019-05-19T23:18:32.779Z,13.70
2019-05-19T23:21:21.040Z,12.33
2019-05-19T23:24:09.969Z,13.47
2019-05-19T23:26:58.467Z,14.07
2019-05-19T23:29:47.000Z,13.40
2019-05-19T23:32:35.560Z,13.90
2019-05-19T23:35:23.347Z,13.63
2019-05-19T23:38:11.734Z,13.23
2019-05-19T23:40:59.800Z,14.13
2019-05-19T23:43:48.379Z,14.13
2019-05-19T23:46:37.268Z,13.23
2019-05-19T23:49:25.891Z,13.93
2019-05-19T23:52:14.212Z,14.40
2019-05-19T23:55:01.817Z,14.43
2019-05-19T23:57:50.292Z,14.10
